Time,TemperatureF,DewpointF,PressureIn,WindDirection,WindDirectionDegrees,WindSpeedMPH,WindSpeedGustMPH,Humidity,HourlyPrecipIn,Conditions,Clouds,dailyrainin,SoftwareType,DateUTC
2013-02-02 00:01:00,24.8,-8.7,29.97,WSW,243,5.8,5.8,22,0.00,,,0.00,WeatherDisplay:10.37,2013-02-02 05:01:00,
2013-02-02 00:06:00,24.6,-8.9,29.97,WNW,299,5.8,5.8,22,0.00,,,0.00,WeatherDisplay:10.37,2013-02-02 05:06:00,
2013-02-02 00:11:00,24.4,-9.0,29.97,NW,304,3.5,3.5,22,0.00,,,0.00,WeatherDisplay:10.37,2013-02-02 05:11:00,
2013-02-02 00:16:00,24.4,-9.0,29.97,WNW,283,3.5,3.5,22,0.00,,,0.00,WeatherDisplay:10.37,2013-02-02 05:16:00,
2013-02-02 00:21:00,24.4,-9.0,29.97,West,267,6.3,6.3,22,0.00,,,0.00,WeatherDisplay:10.37,2013-02-02 05:21:00,
2013-02-02 00:26:00,24.3,-7.4,29.97,SW,233,2.3,0.0,24,0.00,,,0.00,WeatherDisplay:10.37,2013-02-02 05:26:00,
2013-02-02 00:31:00,24.1,-9.4,29.97,SW,231,3.5,3.5,22,0.00,,,0.00,WeatherDisplay:10.37,2013-02-02 05:31:00,
2013-02-02 00:36:00,24.1,-9.4,29.97,WSW,250,4.6,4.6,22,0.00,,,0.00,WeatherDisplay:10.37,2013-02-02 05:36:00,
2013-02-02 00:41:00,23.9,-7.7,29.97,WNW,289,4.6,4.6,24,0.00,,,0.00,WeatherDisplay:10.37,2013-02-02 05:41:00,
2013-02-02 00:46:00,23.7,-7.9,29.97,West,274,3.5,4.0,24,0.00,,,0.00,WeatherDisplay:10.37,2013-02-02 05:46:00,
2013-02-02 00:51:00,23.9,-9.5,29.97,West,263,3.5,3.5,22,0.00,,,0.00,WeatherDisplay:10.37,2013-02-02 05:51:00,
2013-02-02 00:56:00,23.7,-9.7,29.97,WNW,287,5.8,5.8,22,0.00,,,0.00,WeatherDisplay:10.37,2013-02-02 05:56:00,
2013-02-02 01:01:00,23.5,-8.0,29.97,WSW,246,8.1,8.1,24,0.00,,,0.00,WeatherDisplay:10.37,2013-02-02 06:01:00,
2013-02-02 01:06:00,23.5,-9.8,29.97,West,270,4.6,4.6,22,0.00,,,0.00,WeatherDisplay:10.37,2013-02-02 06:06:00,
2013-02-02 01:11:00,23.5,-9.8,29.97,West,259,6.9,0.0,22,0.00,,,0.00,WeatherDisplay:10.37,2013-02-02 06:11:00,
2013-02-02 01:16:00,23.5,-9.8,29.97,West,269,5.8,5.8,22,0.00,,,0.00,WeatherDisplay:10.37,2013-02-02 06:16:00,
2013-02-02 01:21:00,23.5,-8.0,30.00,SSW,211,4.6,4.6,24,0.00,,,0.00,WeatherDisplay:10.37,2013-02-02 06:21:00,
2013-02-02 01:26:00,23.4,-8.2,30.00,WSW,244,5.8,5.8,24,0.00,,,0.00,WeatherDisplay:10.37,2013-02-02 06:26:00,
2013-02-02 01:31:00,23.4,-8.2,30.00,WNW,299,4.6,4.6,24,0.00,,,0.00,WeatherDisplay:10.37,2013-02-02 06:31:00,
2013-02-02 01:36:00,23.4,-8.2,30.00,West,276,8.1,8.1,24,0.00,,,0.00,WeatherDisplay:10.37,2013-02-02 06:36:00,
2013-02-02 01:41:00,23.4,-8.2,30.00,WSW,252,3.5,3.6,24,0.00,,,0.00,WeatherDisplay:10.37,2013-02-02 06:41:00,
2013-02-02 01:46:00,23.4,-8.2,30.00,West,259,5.8,5.8,24,0.00,,,0.00,WeatherDisplay:10.37,2013-02-02 06:46:00,
2013-02-02 01:51:00,23.2,-8.3,30.00,WSW,254,6.9,6.9,24,0.00,,,0.00,WeatherDisplay:10.37,2013-02-02 06:51:00,
2013-02-02 01:56:00,23.2,-8.3,30.00,SW,234,10.4,10.4,24,0.00,,,0.00,WeatherDisplay:10.37,2013-02-02 06:56:00,
2013-02-02 02:01:00,23.2,-8.3,30.00,WNW,294,5.8,5.8,24,0.00,,,0.00,WeatherDisplay:10.37,2013-02-02 07:01:00,
2013-02-02 02:06:00,23.2,-8.3,30.00,West,264,3.5,4.9,24,0.00,,,0.00,WeatherDisplay:10.37,2013-02-02 07:06:00,
2013-02-02 02:11:00,23.0,-7.7,30.00,WNW,297,5.8,5.8,25,0.00,,,0.00,WeatherDisplay:10.37,2013-02-02 07:11:00,
2013-02-02 02:16:00,23.0,-7.7,30.00,West,264,2.3,2.3,25,0.00,,,0.00,WeatherDisplay:10.37,2013-02-02 07:16:00,
2013-02-02 02:21:00,23.0,-7.7,30.00,West,279,3.5,0.0,25,0.00,,,0.00,WeatherDisplay:10.37,2013-02-02 07:21:00,
2013-02-02 02:26:00,22.8,-7.8,30.00,WSW,249,2.3,0.0,25,0.00,,,0.00,WeatherDisplay:10.37,2013-02-02 07:26:00,
2013-02-02 02:31:00,22.8,-7.8,30.00,WSW,244,3.5,3.5,25,0.00,,,0.00,WeatherDisplay:10.37,2013-02-02 07:31:00,
2013-02-02 02:36:00,22.8,-7.8,30.00,SW,233,3.5,0.0,25,0.00,,,0.00,WeatherDisplay:10.37,2013-02-02 07:36:00,
2013-02-02 02:41:00,22.8,-7.8,30.00,West,273,3.5,3.5,25,0.00,,,0.00,WeatherDisplay:10.37,2013-02-02 07:41:00,
2013-02-02 02:46:00,22.8,-6.2,30.00,WNW,285,0.0,0.0,27,0.00,,,0.00,WeatherDisplay:10.37,2013-02-02 07:46:00,
2013-02-02 02:51:00,22.8,-6.2,30.03,West,268,3.5,3.5,27,0.00,,,0.00,WeatherDisplay:10.37,2013-02-02 07:51:00,
2013-02-02 02:56:00,22.8,-6.2,30.03,WNW,282,3.5,3.5,27,0.00,,,0.00,WeatherDisplay:10.37,2013-02-02 07:56:00,
2013-02-02 03:01:00,22.6,-6.4,30.03,WSW,252,5.8,5.8,27,0.00,,,0.00,WeatherDisplay:10.37,2013-02-02 08:01:00,
2013-02-02 03:06:00,22.6,-6.4,30.00,West,279,3.5,3.5,27,0.00,,,0.00,WeatherDisplay:10.37,2013-02-02 08:06:00,
2013-02-02 03:11:00,22.6,-6.4,30.00,West,279,3.5,3.5,27,0.00,,,0.00,WeatherDisplay:10.37,2013-02-02 08:11:00,
2013-02-02 03:17:00,22.6,-6.4,30.00,West,260,2.3,0.0,27,0.00,,,0.00,WeatherDisplay:10.37,2013-02-02 08:17:00,
2013-02-02 03:21:00,22.6,-6.4,30.00,WSW,257,3.5,3.5,27,0.00,,,0.00,WeatherDisplay:10.37,2013-02-02 08:21:00,
2013-02-02 03:27:00,22.6,-6.4,30.00,WSW,250,3.5,0.0,27,0.00,,,0.00,WeatherDisplay:10.37,2013-02-02 08:27:00,
2013-02-02 03:32:00,22.5,-6.5,30.00,SW,219,3.1,0.0,27,0.00,,,0.00,WeatherDisplay:10.37,2013-02-02 08:32:00,
2013-02-02 03:37:00,22.5,-6.5,30.03,SW,224,3.5,3.5,27,0.00,,,0.00,WeatherDisplay:10.37,2013-02-02 08:37:00,
2013-02-02 03:42:00,22.5,-6.5,30.03,West,261,2.3,2.3,27,0.00,,,0.00,WeatherDisplay:10.37,2013-02-02 08:42:00,
2013-02-02 03:47:00,22.5,-6.5,30.03,West,268,3.5,0.0,27,0.00,,,0.00,WeatherDisplay:10.37,2013-02-02 08:47:00,
2013-02-02 03:52:00,22.3,-6.7,30.03,WSW,255,4.6,0.0,27,0.00,,,0.00,WeatherDisplay:10.37,2013-02-02 08:52:00,
2013-02-02 03:57:00,22.3,-4.5,30.03,West,270,2.3,0.0,30,0.00,,,0.00,WeatherDisplay:10.37,2013-02-02 08:57:00,
2013-02-02 04:02:00,22.3,-6.7,30.03,West,264,8.1,8.1,27,0.00,,,0.00,WeatherDisplay:10.37,2013-02-02 09:02:00,
2013-02-02 04:07:00,22.3,-6.7,30.03,WSW,249,3.5,3.5,27,0.00,,,0.00,WeatherDisplay:10.37,2013-02-02 09:07:00,
2013-02-02 04:12:00,22.3,-6.7,30.03,WSW,250,3.1,0.0,27,0.00,,,0.00,WeatherDisplay:10.37,2013-02-02 09:12:00,
2013-02-02 04:17:00,22.5,-4.4,30.03,WSW,256,5.8,5.8,30,0.00,,,0.00,WeatherDisplay:10.37,2013-02-02 09:17:00,
2013-02-02 04:22:00,22.3,-6.7,30.03,NW,319,3.5,3.5,27,0.00,,,0.00,WeatherDisplay:10.37,2013-02-02 09:22:00,
2013-02-02 04:27:00,22.5,-4.4,30.03,West,272,3.5,3.6,30,0.00,,,0.00,WeatherDisplay:10.37,2013-02-02 09:27:00,
2013-02-02 04:32:00,22.3,-6.7,30.03,WSW,254,3.5,3.5,27,0.00,,,0.00,WeatherDisplay:10.37,2013-02-02 09:32:00,
2013-02-02 04:37:00,22.3,-6.7,30.03,WSW,250,3.5,3.5,27,0.00,,,0.00,WeatherDisplay:10.37,2013-02-02 09:37:00,
2013-02-02 04:42:00,22.3,-6.7,30.03,West,271,3.6,3.6,27,0.00,,,0.00,WeatherDisplay:10.37,2013-02-02 09:42:00,
2013-02-02 04:47:00,22.3,-6.7,30.03,West,265,5.8,5.8,27,0.00,,,0.00,WeatherDisplay:10.37,2013-02-02 09:47:00,
2013-02-02 04:52:00,22.3,-4.5,30.03,West,266,3.5,3.5,30,0.00,,,0.00,WeatherDisplay:10.37,2013-02-02 09:52:00,
2013-02-02 04:57:00,22.1,-4.7,30.03,West,265,3.5,3.5,30,0.00,,,0.00,WeatherDisplay:10.37,2013-02-02 09:57:00,
2013-02-02 05:02:00,22.1,-4.7,30.03,WNW,282,5.8,5.8,30,0.00,,,0.00,WeatherDisplay:10.37,2013-02-02 10:02:00,
2013-02-02 05:07:00,22.1,-4.7,30.06,WSW,243,3.5,3.5,30,0.00,,,0.00,WeatherDisplay:10.37,2013-02-02 10:07:00,
2013-02-02 05:12:00,21.9,-4.8,30.06,WSW,252,3.5,3.5,30,0.00,,,0.00,WeatherDisplay:10.37,2013-02-02 10:12:00,
2013-02-02 05:17:00,21.9,-4.8,30.06,West,274,4.6,4.6,30,0.00,,,0.00,WeatherDisplay:10.37,2013-02-02 10:17:00,
2013-02-02 05:22:00,21.9,-4.8,30.06,WSW,258,5.8,5.8,30,0.00,,,0.00,WeatherDisplay:10.37,2013-02-02 10:22:00,
2013-02-02 05:27:00,21.9,-4.8,30.06,WNW,291,3.5,3.5,30,0.00,,,0.00,WeatherDisplay:10.37,2013-02-02 10:27:00,
2013-02-02 05:32:00,21.9,-4.8,30.06,WNW,285,5.8,5.8,30,0.00,,,0.00,WeatherDisplay:10.37,2013-02-02 10:32:00,
2013-02-02 05:37:00,21.9,-4.8,30.06,West,272,3.5,3.5,30,0.00,,,0.00,WeatherDisplay:10.37,2013-02-02 10:37:00,
2013-02-02 05:42:00,21.7,-5.0,30.06,West,272,2.3,0.0,30,0.00,,,0.00,WeatherDisplay:10.37,2013-02-02 10:42:00,
2013-02-02 05:47:00,21.7,-3.6,30.06,West,278,4.6,4.6,32,0.00,,,0.00,WeatherDisplay:10.37,2013-02-02 10:47:00,
2013-02-02 05:52:00,21.7,-3.6,30.06,West,272,0.0,0.0,32,0.00,,,0.00,WeatherDisplay:10.37,2013-02-02 10:52:00,
2013-02-02 05:57:00,21.6,-3.8,30.06,WNW,288,3.6,3.6,32,0.00,,,0.00,WeatherDisplay:10.37,2013-02-02 10:57:00,
2013-02-02 06:02:00,21.4,-4.0,30.06,West,279,0.0,0.0,32,0.00,,,0.00,WeatherDisplay:10.37,2013-02-02 11:02:00,
2013-02-02 06:07:00,21.2,-4.1,30.06,WNW,293,5.8,5.8,32,0.00,,,0.00,WeatherDisplay:10.37,2013-02-02 11:07:00,
2013-02-02 06:12:00,21.2,-4.1,30.06,WNW,283,5.8,5.8,32,0.00,,,0.00,WeatherDisplay:10.37,2013-02-02 11:12:00,
2013-02-02 06:17:00,21.0,-5.6,30.06,WNW,291,4.6,4.6,30,0.00,,,0.00,WeatherDisplay:10.37,2013-02-02 11:17:00,
2013-02-02 06:22:00,21.0,-5.6,30.09,West,276,2.3,0.0,30,0.00,,,0.00,WeatherDisplay:10.37,2013-02-02 11:22:00,
2013-02-02 06:27:00,21.0,-5.6,30.09,West,279,2.3,0.0,30,0.00,,,0.00,WeatherDisplay:10.37,2013-02-02 11:27:00,
2013-02-02 06:32:00,21.0,-5.6,30.09,WNW,284,2.3,0.0,30,0.00,,,0.00,WeatherDisplay:10.37,2013-02-02 11:32:00,
2013-02-02 06:37:00,21.0,-7.8,30.09,WNW,291,8.1,8.1,27,0.00,,,0.00,WeatherDisplay:10.37,2013-02-02 11:37:00,
2013-02-02 06:42:00,21.0,-7.8,30.09,WSW,253,5.8,5.8,27,0.00,,,0.00,WeatherDisplay:10.37,2013-02-02 11:42:00,
2013-02-02 06:47:00,21.0,-7.8,30.09,West,279,5.4,0.0,27,0.00,,,0.00,WeatherDisplay:10.37,2013-02-02 11:47:00,
2013-02-02 06:52:00,20.8,-8.0,30.09,WNW,282,2.3,0.0,27,0.00,,,0.00,WeatherDisplay:10.37,2013-02-02 11:52:00,
2013-02-02 06:57:00,20.8,-8.0,30.09,WNW,285,5.8,5.8,27,0.00,,,0.00,WeatherDisplay:10.37,2013-02-02 11:57:00,
2013-02-02 07:02:00,20.7,-8.1,30.09,WNW,289,2.3,0.0,27,0.00,,,0.00,WeatherDisplay:10.37,2013-02-02 12:02:00,
2013-02-02 07:07:00,20.5,-8.3,30.09,WNW,289,2.3,0.0,27,0.00,,,0.00,WeatherDisplay:10.37,2013-02-02 12:07:00,
2013-02-02 07:12:00,20.5,-8.3,30.09,WNW,289,3.5,3.5,27,0.00,,,0.00,WeatherDisplay:10.37,2013-02-02 12:12:00,
2013-02-02 07:17:00,20.5,-8.3,30.09,WNW,289,3.5,0.0,27,0.00,,,0.00,WeatherDisplay:10.37,2013-02-02 12:17:00,
2013-02-02 07:22:00,20.5,-6.1,30.12,WNW,286,3.5,0.0,30,0.00,,,0.00,WeatherDisplay:10.37,2013-02-02 12:22:00,
2013-02-02 07:27:00,20.5,-6.1,30.12,WNW,286,0.0,0.0,30,0.00,,,0.00,WeatherDisplay:10.37,2013-02-02 12:27:00,
2013-02-02 07:32:00,20.5,-6.1,30.12,WNW,286,0.0,0.0,30,0.00,,,0.00,WeatherDisplay:10.37,2013-02-02 12:32:00,
2013-02-02 07:37:00,21.0,-5.6,30.12,WNW,286,3.5,3.5,30,0.00,,,0.00,WeatherDisplay:10.37,2013-02-02 12:37:00,
2013-02-02 07:42:00,22.6,-4.2,30.12,WNW,286,3.5,0.0,30,0.00,,,0.00,WeatherDisplay:10.37,2013-02-02 12:42:00,
2013-02-02 07:47:00,24.3,-3.5,30.12,WNW,284,5.8,5.8,29,0.00,,,0.00,WeatherDisplay:10.37,2013-02-02 12:47:00,
2013-02-02 07:52:00,27.5,-3.0,30.12,NW,320,3.5,3.5,26,0.00,,,0.00,WeatherDisplay:10.37,2013-02-02 12:52:00,
2013-02-02 07:57:00,31.6,2.2,30.12,NW,320,2.3,0.0,28,0.00,,,0.00,WeatherDisplay:10.37,2013-02-02 12:57:00,
2013-02-02 08:02:00,35.8,2.4,30.12,NW,320,3.6,3.6,24,0.00,,,0.00,WeatherDisplay:10.37,2013-02-02 13:02:00,
2013-02-02 08:07:00,36.9,1.5,30.12,WNW,290,3.5,0.0,22,0.00,,,0.00,WeatherDisplay:10.37,2013-02-02 13:07:00,
2013-02-02 08:12:00,35.4,-1.8,30.12,WNW,292,5.8,5.8,20,0.00,,,0.00,WeatherDisplay:10.37,2013-02-02 13:12:00,
2013-02-02 08:17:00,35.6,-2.7,30.12,WSW,253,3.5,0.0,19,0.00,,,0.00,WeatherDisplay:10.37,2013-02-02 13:17:00,
2013-02-02 08:22:00,36.0,-2.4,30.12,West,272,2.3,3.6,19,0.00,,,0.00,WeatherDisplay:10.37,2013-02-02 13:22:00,
2013-02-02 08:27:00,36.3,1.0,30.12,West,261,4.6,4.6,22,0.00,,,0.00,WeatherDisplay:10.37,2013-02-02 13:27:00,
2013-02-02 08:32:00,36.7,-1.8,30.12,SW,234,3.6,3.6,19,0.00,,,0.00,WeatherDisplay:10.37,2013-02-02 13:32:00,
2013-02-02 08:37:00,35.1,-2.1,30.12,SSW,195,5.8,5.8,20,0.00,,,0.00,WeatherDisplay:10.37,2013-02-02 13:37:00,
2013-02-02 08:42:00,34.5,-2.5,30.12,West,265,8.1,8.1,20,0.00,,,0.00,WeatherDisplay:10.37,2013-02-02 13:42:00,
2013-02-02 08:47:00,34.2,-2.8,30.12,WSW,246,2.3,0.0,20,0.00,,,0.00,WeatherDisplay:10.37,2013-02-02 13:47:00,
2013-02-02 08:52:00,33.1,-3.7,30.12,WNW,289,3.5,3.5,20,0.00,,,0.00,WeatherDisplay:10.37,2013-02-02 13:52:00,
2013-02-02 08:57:00,31.3,-7.4,30.12,West,281,3.5,3.5,18,0.00,,,0.00,WeatherDisplay:10.37,2013-02-02 13:57:00,
2013-02-02 09:02:00,31.1,-5.4,30.12,West,263,3.5,0.0,20,0.00,,,0.00,WeatherDisplay:10.37,2013-02-02 14:02:00,
2013-02-02 09:07:00,30.6,-8.0,30.12,West,271,3.5,3.5,18,0.00,,,0.00,WeatherDisplay:10.37,2013-02-02 14:07:00,
2013-02-02 09:12:00,30.2,-8.3,30.12,West,272,5.8,5.8,18,0.00,,,0.00,WeatherDisplay:10.37,2013-02-02 14:12:00,
2013-02-02 09:18:00,29.7,-6.6,30.12,WSW,247,3.5,0.0,20,0.00,,,0.00,WeatherDisplay:10.37,2013-02-02 14:18:00,
2013-02-02 09:22:00,29.8,-6.4,30.12,WSW,249,3.5,3.6,20,0.00,,,0.00,WeatherDisplay:10.37,2013-02-02 14:22:00,
2013-02-02 09:28:00,29.5,-6.7,30.12,WNW,293,3.5,3.5,20,0.00,,,0.00,WeatherDisplay:10.37,2013-02-02 14:28:00,
2013-02-02 09:33:00,29.1,-7.0,30.12,NW,325,5.8,5.8,20,0.00,,,0.00,WeatherDisplay:10.37,2013-02-02 14:33:00,
2013-02-02 09:38:00,28.4,-6.6,30.12,West,270,2.3,0.0,21,0.00,,,0.00,WeatherDisplay:10.37,2013-02-02 14:38:00,
2013-02-02 09:43:00,28.0,-7.0,30.12,WSW,256,5.8,5.8,21,0.00,,,0.00,WeatherDisplay:10.37,2013-02-02 14:43:00,
2013-02-02 09:48:00,28.2,-6.8,30.12,WSW,239,2.3,0.0,21,0.00,,,0.00,WeatherDisplay:10.37,2013-02-02 14:48:00,
2013-02-02 09:53:00,28.8,-7.3,30.12,WSW,241,5.8,5.8,20,0.00,,,0.00,WeatherDisplay:10.37,2013-02-02 14:53:00,
2013-02-02 09:58:00,28.8,-9.5,30.12,SW,234,3.5,3.5,18,0.00,,,0.00,WeatherDisplay:10.37,2013-02-02 14:58:00,
2013-02-02 10:03:00,28.9,-9.4,30.12,SW,226,5.8,5.8,18,0.00,,,0.00,WeatherDisplay:10.37,2013-02-02 15:03:00,
2013-02-02 10:08:00,28.6,-7.5,30.12,SW,234,3.5,0.0,20,0.00,,,0.00,WeatherDisplay:10.37,2013-02-02 15:08:00,
2013-02-02 10:13:00,28.9,-7.2,30.12,West,260,2.3,0.0,20,0.00,,,0.00,WeatherDisplay:10.37,2013-02-02 15:13:00,
2013-02-02 10:18:00,29.1,-9.2,30.12,WNW,295,5.8,5.8,18,0.00,,,0.00,WeatherDisplay:10.37,2013-02-02 15:18:00,
2013-02-02 10:23:00,29.1,-9.2,30.12,SW,235,3.5,3.5,18,0.00,,,0.00,WeatherDisplay:10.37,2013-02-02 15:23:00,
2013-02-02 10:28:00,28.6,-9.7,30.12,WSW,242,3.5,3.5,18,0.00,,,0.00,WeatherDisplay:10.37,2013-02-02 15:28:00,
2013-02-02 10:33:00,28.4,-9.8,30.12,SW,228,3.5,0.0,18,0.00,,,0.00,WeatherDisplay:10.37,2013-02-02 15:33:00,
2013-02-02 10:38:00,28.6,-9.7,30.12,NNW,330,3.5,3.5,18,0.00,,,0.00,WeatherDisplay:10.37,2013-02-02 15:38:00,
2013-02-02 10:43:00,28.6,-9.7,30.12,WSW,246,3.6,3.6,18,0.00,,,0.00,WeatherDisplay:10.37,2013-02-02 15:43:00,
2013-02-02 10:48:00,28.8,-7.3,30.12,West,278,3.5,3.5,20,0.00,,,0.00,WeatherDisplay:10.37,2013-02-02 15:48:00,
2013-02-02 10:53:00,28.9,-9.4,30.12,NW,323,8.1,8.1,18,0.00,,,0.00,WeatherDisplay:10.37,2013-02-02 15:53:00,
2013-02-02 10:58:00,28.9,-9.4,30.12,West,281,2.7,0.0,18,0.00,,,0.00,WeatherDisplay:10.37,2013-02-02 15:58:00,
2013-02-02 11:03:00,29.1,-9.2,30.12,WSW,237,5.8,5.8,18,0.00,,,0.00,WeatherDisplay:10.37,2013-02-02 16:03:00,
2013-02-02 11:08:00,29.3,-9.1,30.12,West,273,6.9,6.9,18,0.00,,,0.00,WeatherDisplay:10.37,2013-02-02 16:08:00,
2013-02-02 11:13:00,29.5,-8.9,30.12,NW,317,3.5,3.5,18,0.00,,,0.00,WeatherDisplay:10.37,2013-02-02 16:13:00,
2013-02-02 11:18:00,29.8,-6.4,30.12,North,350,3.5,0.0,20,0.00,,,0.00,WeatherDisplay:10.37,2013-02-02 16:18:00,
2013-02-02 11:23:00,30.2,-8.3,30.12,West,279,3.5,3.5,18,0.00,,,0.00,WeatherDisplay:10.37,2013-02-02 16:23:00,
2013-02-02 11:28:00,30.7,-7.9,30.12,WSW,239,5.8,5.8,18,0.00,,,0.00,WeatherDisplay:10.37,2013-02-02 16:28:00,
2013-02-02 11:33:00,30.7,-7.9,30.12,WSW,248,5.8,5.8,18,0.00,,,0.00,WeatherDisplay:10.37,2013-02-02 16:33:00,
2013-02-02 11:38:00,30.6,-8.0,30.09,SW,221,3.5,0.0,18,0.00,,,0.00,WeatherDisplay:10.37,2013-02-02 16:38:00,
2013-02-02 11:43:00,30.7,-5.7,30.09,WNW,293,5.8,5.8,20,0.00,,,0.00,WeatherDisplay:10.37,2013-02-02 16:43:00,
2013-02-02 11:48:00,31.1,-5.4,30.09,SW,215,3.5,3.5,20,0.00,,,0.00,WeatherDisplay:10.37,2013-02-02 16:48:00,
2013-02-02 11:53:00,30.7,-5.7,30.09,WSW,240,5.4,0.0,20,0.00,,,0.00,WeatherDisplay:10.37,2013-02-02 16:53:00,
2013-02-02 11:58:00,30.6,-5.8,30.09,WSW,246,0.0,0.0,20,0.00,,,0.00,WeatherDisplay:10.37,2013-02-02 16:58:00,
2013-02-02 12:03:00,30.6,-5.8,30.09,SW,234,3.5,3.5,20,0.00,,,0.00,WeatherDisplay:10.37,2013-02-02 17:03:00,
2013-02-02 12:08:00,30.4,-6.0,30.09,SSW,208,4.6,4.6,20,0.00,,,0.00,WeatherDisplay:10.37,2013-02-02 17:08:00,
2013-02-02 12:13:00,30.0,-6.3,30.09,WSW,246,5.4,5.4,20,0.00,,,0.00,WeatherDisplay:10.37,2013-02-02 17:13:00,
2013-02-02 12:18:00,30.2,-6.1,30.09,WSW,253,5.8,5.8,20,0.00,,,0.00,WeatherDisplay:10.37,2013-02-02 17:18:00,
2013-02-02 12:23:00,30.6,-5.8,30.06,West,272,3.5,3.5,20,0.00,,,0.00,WeatherDisplay:10.37,2013-02-02 17:23:00,
2013-02-02 12:28:00,30.2,-6.1,30.06,South,181,3.5,3.5,20,0.00,,,0.00,WeatherDisplay:10.37,2013-02-02 17:28:00,
2013-02-02 12:33:00,30.2,-6.1,30.06,WSW,240,5.8,5.8,20,0.00,,,0.00,WeatherDisplay:10.37,2013-02-02 17:33:00,
2013-02-02 12:38:00,30.2,-6.1,30.06,SW,225,4.0,4.0,20,0.00,,,0.00,WeatherDisplay:10.37,2013-02-02 17:38:00,
2013-02-02 12:43:00,30.2,-6.1,30.06,South,182,3.5,0.0,20,0.00,,,0.00,WeatherDisplay:10.37,2013-02-02 17:43:00,
2013-02-02 12:48:00,29.8,-6.4,30.06,WSW,248,3.6,3.6,20,0.00,,,0.00,WeatherDisplay:10.37,2013-02-02 17:48:00,
2013-02-02 12:53:00,29.7,-6.6,30.06,South,185,3.5,0.0,20,0.00,,,0.00,WeatherDisplay:10.37,2013-02-02 17:53:00,
2013-02-02 12:58:00,29.5,-6.7,30.06,WSW,254,3.5,3.5,20,0.00,,,0.00,WeatherDisplay:10.37,2013-02-02 17:58:00,
2013-02-02 13:03:00,29.5,-6.7,30.06,SW,222,4.6,4.6,20,0.00,,,0.00,WeatherDisplay:10.37,2013-02-02 18:03:00,
2013-02-02 13:08:00,29.8,-6.4,30.06,SSE,168,3.5,3.5,20,0.00,,,0.00,WeatherDisplay:10.37,2013-02-02 18:08:00,
2013-02-02 13:13:00,30.2,-6.1,30.06,West,262,3.5,3.5,20,0.00,,,0.00,WeatherDisplay:10.37,2013-02-02 18:13:00,
2013-02-02 13:18:00,30.7,-5.7,30.06,WSW,247,3.5,3.5,20,0.00,,,0.00,WeatherDisplay:10.37,2013-02-02 18:18:00,
2013-02-02 13:23:00,31.8,-4.8,30.03,WSW,241,5.8,0.0,20,0.00,,,0.00,WeatherDisplay:10.37,2013-02-02 18:23:00,
2013-02-02 13:28:00,33.1,-3.7,30.03,West,260,3.5,3.6,20,0.00,,,0.00,WeatherDisplay:10.37,2013-02-02 18:28:00,
2013-02-02 13:33:00,33.1,-3.7,30.03,SW,233,6.9,6.9,20,0.00,,,0.00,WeatherDisplay:10.37,2013-02-02 18:33:00,
2013-02-02 13:38:00,32.9,-0.9,30.03,SW,223,5.8,0.0,23,0.00,,,0.00,WeatherDisplay:10.37,2013-02-02 18:38:00,
2013-02-02 13:43:00,33.4,-0.5,30.03,SSW,197,3.5,3.5,23,0.00,,,0.00,WeatherDisplay:10.37,2013-02-02 18:43:00,
2013-02-02 13:48:00,33.1,-0.8,30.03,WSW,249,2.3,0.0,23,0.00,,,0.00,WeatherDisplay:10.37,2013-02-02 18:48:00,
2013-02-02 13:53:00,32.4,-1.4,30.03,South,183,5.8,5.8,23,0.00,,,0.00,WeatherDisplay:10.37,2013-02-02 18:53:00,
2013-02-02 13:58:00,31.5,-2.2,30.03,WSW,249,3.5,3.5,23,0.00,,,0.00,WeatherDisplay:10.37,2013-02-02 18:58:00,
2013-02-02 14:03:00,31.3,-2.3,30.03,WSW,238,0.0,2.2,23,0.00,,,0.00,WeatherDisplay:10.37,2013-02-02 19:03:00,
2013-02-02 14:08:00,31.3,-2.3,30.03,WSW,238,0.0,2.2,23,0.00,,,0.00,WeatherDisplay:10.37,2013-02-02 19:08:00,
2013-02-02 14:13:00,31.1,-0.7,30.03,SE,140,5.8,5.8,25,0.00,,,0.00,WeatherDisplay:10.37,2013-02-02 19:13:00,
2013-02-02 14:18:00,30.2,-1.5,30.03,SSW,193,4.6,4.6,25,0.00,,,0.00,WeatherDisplay:10.37,2013-02-02 19:18:00,
2013-02-02 14:23:00,30.0,0.8,30.03,SSE,162,3.5,3.5,28,0.00,,,0.00,WeatherDisplay:10.37,2013-02-02 19:23:00,
2013-02-02 14:28:00,29.8,2.1,30.03,WSW,249,3.5,0.0,30,0.00,,,0.00,WeatherDisplay:10.37,2013-02-02 19:28:00,
2013-02-02 14:34:00,30.0,3.0,30.03,SSW,200,5.8,5.8,31,0.00,,,0.00,WeatherDisplay:10.37,2013-02-02 19:34:00,
2013-02-02 14:39:00,30.2,3.8,30.03,South,176,4.6,4.6,32,0.00,,,0.00,WeatherDisplay:10.37,2013-02-02 19:39:00,
2013-02-02 14:44:00,29.5,3.2,30.03,South,177,5.8,5.8,32,0.00,,,0.00,WeatherDisplay:10.37,2013-02-02 19:44:00,
2013-02-02 14:49:00,29.5,3.2,30.03,SSE,155,3.5,3.5,32,0.00,,,0.00,WeatherDisplay:10.37,2013-02-02 19:49:00,
2013-02-02 14:54:00,30.2,3.8,30.00,South,172,4.6,4.6,32,0.00,,,0.00,WeatherDisplay:10.37,2013-02-02 19:54:00,
2013-02-02 14:59:00,30.2,3.8,30.00,South,185,2.3,0.0,32,0.00,,,0.00,WeatherDisplay:10.37,2013-02-02 19:59:00,
2013-02-02 15:04:00,30.6,3.5,30.00,SW,236,3.5,3.5,31,0.00,,,0.00,WeatherDisplay:10.37,2013-02-02 20:04:00,
2013-02-02 15:09:00,30.7,3.6,30.00,SSE,166,3.5,3.5,31,0.00,,,0.00,WeatherDisplay:10.37,2013-02-02 20:09:00,
2013-02-02 15:14:00,30.9,3.8,30.00,WSW,244,9.2,9.2,31,0.00,,,0.00,WeatherDisplay:10.37,2013-02-02 20:14:00,
2013-02-02 15:19:00,31.1,3.9,30.00,SSW,207,5.8,5.8,31,0.00,,,0.00,WeatherDisplay:10.37,2013-02-02 20:19:00,
2013-02-02 15:24:00,31.1,3.2,30.00,SSW,200,4.6,4.6,30,0.00,,,0.00,WeatherDisplay:10.37,2013-02-02 20:24:00,
2013-02-02 15:29:00,30.7,2.9,30.00,SSW,194,4.6,4.6,30,0.00,,,0.00,WeatherDisplay:10.37,2013-02-02 20:29:00,
2013-02-02 15:34:00,30.9,3.8,30.00,SSW,201,3.5,3.5,31,0.00,,,0.00,WeatherDisplay:10.37,2013-02-02 20:34:00,
2013-02-02 15:39:00,30.9,3.8,30.00,SW,220,3.5,3.5,31,0.00,,,0.00,WeatherDisplay:10.37,2013-02-02 20:39:00,
2013-02-02 15:44:00,31.1,3.9,30.00,SSE,168,5.8,5.8,31,0.00,,,0.00,WeatherDisplay:10.37,2013-02-02 20:44:00,
2013-02-02 15:49:00,30.9,3.8,30.00,SW,222,8.1,8.1,31,0.00,,,0.00,WeatherDisplay:10.37,2013-02-02 20:49:00,
2013-02-02 15:54:00,30.6,3.5,30.00,South,185,3.5,0.0,31,0.00,,,0.00,WeatherDisplay:10.37,2013-02-02 20:54:00,
2013-02-02 15:59:00,30.4,3.3,30.00,SSE,147,10.4,10.4,31,0.00,,,0.00,WeatherDisplay:10.37,2013-02-02 20:59:00,
2013-02-02 16:04:00,30.2,3.1,30.00,South,187,3.5,3.5,31,0.00,,,0.00,WeatherDisplay:10.37,2013-02-02 21:04:00,
2013-02-02 16:09:00,30.2,3.1,30.00,WSW,247,5.8,5.8,31,0.00,,,0.00,WeatherDisplay:10.37,2013-02-02 21:09:00,
2013-02-02 16:14:00,30.2,3.1,30.00,South,176,4.6,4.6,31,0.00,,,0.00,WeatherDisplay:10.37,2013-02-02 21:14:00,
2013-02-02 16:19:00,30.2,3.1,30.00,SW,224,5.8,5.8,31,0.00,,,0.00,WeatherDisplay:10.37,2013-02-02 21:19:00,
2013-02-02 16:24:00,30.2,3.1,30.00,SSW,198,3.5,3.5,31,0.00,,,0.00,WeatherDisplay:10.37,2013-02-02 21:24:00,
2013-02-02 16:29:00,30.2,3.1,30.00,SW,234,3.5,3.5,31,0.00,,,0.00,WeatherDisplay:10.37,2013-02-02 21:29:00,
2013-02-02 16:34:00,30.0,3.7,30.00,SSE,151,3.5,3.5,32,0.00,,,0.00,WeatherDisplay:10.37,2013-02-02 21:34:00,
2013-02-02 16:39:00,29.8,3.5,29.97,SSE,167,3.5,0.0,32,0.00,,,0.00,WeatherDisplay:10.37,2013-02-02 21:39:00,
2013-02-02 16:44:00,29.7,3.4,29.97,SW,223,3.5,3.5,32,0.00,,,0.00,WeatherDisplay:10.37,2013-02-02 21:44:00,
2013-02-02 16:49:00,29.7,3.4,29.97,South,190,10.4,10.4,32,0.00,,,0.00,WeatherDisplay:10.37,2013-02-02 21:49:00,
2013-02-02 16:54:00,29.7,3.4,29.97,South,169,3.5,3.5,32,0.00,,,0.00,WeatherDisplay:10.37,2013-02-02 21:54:00,
2013-02-02 16:59:00,29.8,3.5,29.97,South,179,2.3,0.0,32,0.00,,,0.00,WeatherDisplay:10.37,2013-02-02 21:59:00,
2013-02-02 17:04:00,29.8,3.5,29.97,SSW,207,2.3,0.0,32,0.00,,,0.00,WeatherDisplay:10.37,2013-02-02 22:04:00,
2013-02-02 17:09:00,29.8,3.5,29.97,SSW,211,3.5,3.5,32,0.00,,,0.00,WeatherDisplay:10.37,2013-02-02 22:09:00,
2013-02-02 17:14:00,30.0,3.7,29.97,WSW,239,3.5,3.5,32,0.00,,,0.00,WeatherDisplay:10.37,2013-02-02 22:14:00,
2013-02-02 17:19:00,29.8,4.2,29.97,SSE,167,3.5,3.5,33,0.00,,,0.00,WeatherDisplay:10.37,2013-02-02 22:19:00,
2013-02-02 17:24:00,29.8,4.2,29.97,South,185,3.5,0.0,33,0.00,,,0.00,WeatherDisplay:10.37,2013-02-02 22:24:00,
2013-02-02 17:29:00,30.0,5.0,29.97,SSE,165,3.5,0.0,34,0.00,,,0.00,WeatherDisplay:10.37,2013-02-02 22:29:00,
2013-02-02 17:34:00,30.2,5.2,29.97,SSW,194,3.5,3.5,34,0.00,,,0.00,WeatherDisplay:10.37,2013-02-02 22:34:00,
2013-02-02 17:39:00,30.2,5.2,29.97,SE,126,3.5,3.5,34,0.00,,,0.00,WeatherDisplay:10.37,2013-02-02 22:39:00,
2013-02-02 17:44:00,30.2,5.2,29.97,SW,236,3.5,3.5,34,0.00,,,0.00,WeatherDisplay:10.37,2013-02-02 22:44:00,
2013-02-02 17:49:00,30.4,5.3,29.97,SSE,155,0.0,0.0,34,0.00,,,0.00,WeatherDisplay:10.37,2013-02-02 22:49:00,
2013-02-02 17:54:00,30.4,5.3,29.97,SSW,204,2.3,0.0,34,0.00,,,0.00,WeatherDisplay:10.37,2013-02-02 22:54:00,
2013-02-02 17:59:00,30.6,5.5,29.97,WSW,247,3.5,3.5,34,0.00,,,0.00,WeatherDisplay:10.37,2013-02-02 22:59:00,
2013-02-02 18:04:00,30.7,5.6,29.97,SSW,207,0.0,0.0,34,0.00,,,0.00,WeatherDisplay:10.37,2013-02-02 23:04:00,
2013-02-02 18:09:00,30.7,5.6,29.97,WSW,251,3.5,3.5,34,0.00,,,0.00,WeatherDisplay:10.37,2013-02-02 23:09:00,
2013-02-02 18:14:00,30.9,5.8,29.97,SSW,208,3.5,0.0,34,0.00,,,0.00,WeatherDisplay:10.37,2013-02-02 23:14:00,
2013-02-02 18:19:00,31.1,6.0,29.97,South,179,2.3,3.1,34,0.00,,,0.00,WeatherDisplay:10.37,2013-02-02 23:19:00,
2013-02-02 18:24:00,31.3,6.1,29.97,South,170,4.0,0.0,34,0.00,,,0.00,WeatherDisplay:10.37,2013-02-02 23:24:00,
2013-02-02 18:29:00,31.3,6.1,29.97,South,190,3.5,3.5,34,0.00,,,0.00,WeatherDisplay:10.37,2013-02-02 23:29:00,
2013-02-02 18:34:00,31.5,6.3,29.97,South,177,3.5,3.6,34,0.00,,,0.00,WeatherDisplay:10.37,2013-02-02 23:34:00,
2013-02-02 18:39:00,31.6,6.4,29.97,SW,234,0.0,2.2,34,0.00,,,0.00,WeatherDisplay:10.37,2013-02-02 23:39:00,
2013-02-02 18:44:00,31.6,6.4,29.97,SSE,166,3.6,0.0,34,0.00,,,0.00,WeatherDisplay:10.37,2013-02-02 23:44:00,
2013-02-02 18:49:00,31.6,5.8,29.97,SW,217,5.8,5.8,33,0.00,,,0.00,WeatherDisplay:10.37,2013-02-02 23:49:00,
2013-02-02 18:54:00,31.6,5.8,29.97,SW,226,9.2,9.2,33,0.00,,,0.00,WeatherDisplay:10.37,2013-02-02 23:54:00,
2013-02-02 18:59:00,31.8,5.9,29.97,SW,217,3.5,4.5,33,0.00,,,0.00,WeatherDisplay:10.37,2013-02-02 23:59:00,
2013-02-02 19:04:00,31.8,5.9,29.97,WSW,249,3.5,0.0,33,0.00,,,0.00,WeatherDisplay:10.37,2013-02-03 00:04:00,
2013-02-02 19:09:00,31.8,5.9,29.97,SSW,197,2.3,0.0,33,0.00,,,0.00,WeatherDisplay:10.37,2013-02-03 00:09:00,
2013-02-02 19:14:00,31.8,5.9,29.97,SSE,158,3.5,3.5,33,0.00,,,0.00,WeatherDisplay:10.37,2013-02-03 00:14:00,
2013-02-02 19:19:00,31.8,6.6,29.97,SE,146,3.5,3.5,34,0.00,,,0.00,WeatherDisplay:10.37,2013-02-03 00:19:00,
2013-02-02 19:24:00,31.6,6.4,29.97,WSW,247,3.5,3.5,34,0.00,,,0.00,WeatherDisplay:10.37,2013-02-03 00:24:00,
2013-02-02 19:29:00,31.6,6.4,29.97,SW,217,3.6,0.0,34,0.00,,,0.00,WeatherDisplay:10.37,2013-02-03 00:29:00,
2013-02-02 19:34:00,31.6,6.4,29.97,South,177,3.5,3.5,34,0.00,,,0.00,WeatherDisplay:10.37,2013-02-03 00:34:00,
2013-02-02 19:39:00,31.6,6.4,29.94,South,178,2.3,0.0,34,0.00,,,0.00,WeatherDisplay:10.37,2013-02-03 00:39:00,
2013-02-02 19:44:00,31.8,6.6,29.94,South,176,5.8,5.8,34,0.00,,,0.00,WeatherDisplay:10.37,2013-02-03 00:44:00,
2013-02-02 19:49:00,31.8,6.6,29.94,SW,218,2.3,0.0,34,0.00,,,0.00,WeatherDisplay:10.37,2013-02-03 00:49:00,
2013-02-02 19:54:00,31.8,6.6,29.94,SW,220,3.5,3.5,34,0.00,,,0.00,WeatherDisplay:10.37,2013-02-03 00:54:00,
2013-02-02 19:59:00,32.0,6.8,29.94,South,189,3.5,0.0,34,0.00,,,0.00,WeatherDisplay:10.37,2013-02-03 00:59:00,
2013-02-02 20:04:00,32.0,6.8,29.94,WSW,251,3.6,3.6,34,0.00,,,0.00,WeatherDisplay:10.37,2013-02-03 01:04:00,
2013-02-02 20:10:00,32.0,6.8,29.94,SW,236,0.0,0.0,34,0.00,,,0.00,WeatherDisplay:10.37,2013-02-03 01:10:00,
2013-02-02 20:15:00,32.0,7.4,29.94,SSW,195,4.6,4.6,35,0.00,,,0.00,WeatherDisplay:10.37,2013-02-03 01:15:00,
2013-02-02 20:20:00,32.0,7.4,29.94,SSE,162,3.5,0.0,35,0.00,,,0.00,WeatherDisplay:10.37,2013-02-03 01:20:00,
2013-02-02 20:25:00,32.0,8.0,29.94,SW,220,5.8,5.8,36,0.00,,,0.00,WeatherDisplay:10.37,2013-02-03 01:25:00,
2013-02-02 20:30:00,32.0,8.0,29.94,South,180,3.5,0.0,36,0.00,,,0.00,WeatherDisplay:10.37,2013-02-03 01:30:00,
2013-02-02 20:35:00,32.0,8.6,29.94,South,172,3.5,3.5,37,0.00,,,0.00,WeatherDisplay:10.37,2013-02-03 01:35:00,
2013-02-02 20:40:00,32.2,8.8,29.94,SW,220,2.3,0.0,37,0.00,,,0.00,WeatherDisplay:10.37,2013-02-03 01:40:00,
2013-02-02 20:45:00,32.0,8.6,29.94,SSW,210,3.5,0.0,37,0.00,,,0.00,WeatherDisplay:10.37,2013-02-03 01:45:00,
2013-02-02 20:50:00,32.0,8.6,29.94,South,170,2.3,0.0,37,0.00,,,0.00,WeatherDisplay:10.37,2013-02-03 01:50:00,
2013-02-02 20:55:00,32.0,9.2,29.94,SSW,194,3.5,3.5,38,0.00,,,0.00,WeatherDisplay:10.37,2013-02-03 01:55:00,
2013-02-02 21:00:00,32.0,9.2,29.94,SW,235,4.6,4.6,38,0.00,,,0.00,WeatherDisplay:10.37,2013-02-03 02:00:00,
2013-02-02 21:05:00,32.2,9.4,29.94,SSW,208,3.5,3.5,38,0.00,,,0.00,WeatherDisplay:10.37,2013-02-03 02:05:00,
2013-02-02 21:10:00,32.2,9.4,29.94,WSW,237,2.3,0.0,38,0.00,,,0.00,WeatherDisplay:10.37,2013-02-03 02:10:00,
2013-02-02 21:15:00,32.2,9.4,29.94,SSW,205,4.6,0.0,38,0.00,,,0.00,WeatherDisplay:10.37,2013-02-03 02:15:00,
2013-02-02 21:20:00,32.4,10.7,29.94,South,180,2.3,0.0,40,0.00,,,0.00,WeatherDisplay:10.37,2013-02-03 02:20:00,
2013-02-02 21:25:00,32.4,10.7,29.94,SSW,208,3.5,0.0,40,0.00,,,0.00,WeatherDisplay:10.37,2013-02-03 02:25:00,
2013-02-02 21:30:00,32.5,10.9,29.94,WSW,245,3.5,0.0,40,0.00,,,0.00,WeatherDisplay:10.37,2013-02-03 02:30:00,
2013-02-02 21:35:00,32.5,10.9,29.94,South,175,3.5,0.0,40,0.00,,,0.00,WeatherDisplay:10.37,2013-02-03 02:35:00,
2013-02-02 21:40:00,32.7,11.6,29.94,WSW,243,4.0,4.0,41,0.00,,,0.00,WeatherDisplay:10.37,2013-02-03 02:40:00,
2013-02-02 21:45:00,32.7,12.1,29.94,South,179,4.0,4.0,42,0.00,,,0.00,WeatherDisplay:10.37,2013-02-03 02:45:00,
2013-02-02 21:50:00,32.7,12.7,29.94,SSW,209,3.5,3.5,43,0.00,,,0.00,WeatherDisplay:10.37,2013-02-03 02:50:00,
2013-02-02 21:55:00,32.5,14.0,29.94,SW,223,5.8,5.8,46,0.00,,,0.00,WeatherDisplay:10.37,2013-02-03 02:55:00,
2013-02-02 22:00:00,32.4,15.3,29.94,West,270,0.0,0.0,49,0.00,,,0.00,WeatherDisplay:10.37,2013-02-03 03:00:00,
2013-02-02 22:05:00,32.2,16.1,29.94,SW,230,2.3,0.0,51,0.00,,,0.00,WeatherDisplay:10.37,2013-02-03 03:05:00,
2013-02-02 22:10:00,32.2,16.9,29.94,WSW,247,2.3,2.3,53,0.00,,,0.00,WeatherDisplay:10.37,2013-02-03 03:10:00,
2013-02-02 22:15:00,32.0,16.8,29.94,SW,228,4.6,4.6,53,0.00,,,0.00,WeatherDisplay:10.37,2013-02-03 03:15:00,
2013-02-02 22:20:00,32.0,17.6,29.94,WSW,244,3.5,3.5,55,0.00,,,0.00,WeatherDisplay:10.37,2013-02-03 03:20:00,
2013-02-02 22:25:00,31.8,17.9,29.94,SW,227,2.3,0.0,56,0.00,,,0.00,WeatherDisplay:10.37,2013-02-03 03:25:00,
2013-02-02 22:30:00,31.6,17.7,29.94,SW,230,5.8,5.8,56,0.00,,,0.00,WeatherDisplay:10.37,2013-02-03 03:30:00,
2013-02-02 22:35:00,31.6,18.1,29.91,SSE,167,3.5,0.0,57,0.00,,,0.00,WeatherDisplay:10.37,2013-02-03 03:35:00,
2013-02-02 22:40:00,31.6,18.5,29.91,SW,227,0.0,0.0,58,0.00,,,0.00,WeatherDisplay:10.37,2013-02-03 03:40:00,
2013-02-02 22:45:00,31.5,18.8,29.91,SW,224,5.8,5.8,59,0.00,,,0.00,WeatherDisplay:10.37,2013-02-03 03:45:00,
2013-02-02 22:50:00,31.5,18.8,29.91,WSW,247,3.5,3.5,59,0.00,,,0.00,WeatherDisplay:10.37,2013-02-03 03:50:00,
2013-02-02 22:55:00,31.3,18.6,29.91,WNW,290,3.5,3.5,59,0.00,,,0.00,WeatherDisplay:10.37,2013-02-03 03:55:00,
2013-02-02 23:00:00,31.3,19.0,29.91,West,281,3.5,0.0,60,0.00,,,0.00,WeatherDisplay:10.37,2013-02-03 04:00:00,
2013-02-02 23:05:00,31.1,18.8,29.91,West,279,0.0,0.0,60,0.00,,,0.00,WeatherDisplay:10.37,2013-02-03 04:05:00,
2013-02-02 23:10:00,30.9,18.7,29.91,WNW,283,2.7,2.7,60,0.00,,,0.00,WeatherDisplay:10.37,2013-02-03 04:10:00,
2013-02-02 23:15:00,30.7,18.5,29.91,West,263,3.5,0.0,60,0.00,,,0.00,WeatherDisplay:10.37,2013-02-03 04:15:00,
2013-02-02 23:20:00,30.6,18.3,29.91,West,264,3.5,3.5,60,0.00,,,0.00,WeatherDisplay:10.37,2013-02-03 04:20:00,
2013-02-02 23:25:00,30.4,18.1,29.91,West,265,3.5,0.0,60,0.00,,,0.00,WeatherDisplay:10.37,2013-02-03 04:25:00,
2013-02-02 23:30:00,30.2,18.4,29.91,West,274,2.3,0.0,61,0.00,,,0.00,WeatherDisplay:10.37,2013-02-03 04:30:00,
2013-02-02 23:35:00,30.0,18.2,29.91,West,274,3.5,3.5,61,0.00,,,0.00,WeatherDisplay:10.37,2013-02-03 04:35:00,
2013-02-02 23:40:00,30.0,18.6,29.91,West,274,3.5,0.0,62,0.00,,,0.00,WeatherDisplay:10.37,2013-02-03 04:40:00,
2013-02-02 23:45:00,29.8,18.4,29.91,West,276,2.3,0.0,62,0.00,,,0.00,WeatherDisplay:10.37,2013-02-03 04:45:00,
2013-02-02 23:50:00,29.8,18.4,29.91,West,275,5.8,0.0,62,0.00,,,0.00,WeatherDisplay:10.37,2013-02-03 04:50:00,
2013-02-02 23:55:00,29.8,18.8,29.91,West,276,3.5,3.5,63,0.00,,,0.00,WeatherDisplay:10.37,2013-02-03 04:55:00,